CPC6 weather

Teeswater (Thompson Field) Airport
Teeswater, Ontario, Canada

Public forecast

Using degrees Celsius for public forecast. Weather courtesy of forecast.io.

METAR (pilot weather report)

Closest report is Wiarton Airport, 48.4 nm (89.6 km) N. Retrieved 2019/07/17 03:00 UTC (38 minutes ago):

CYVV 170300Z 23009KT 15SM FEW012 BKN048 24/22 A2989 RMK CU1SC5 WND ESTD SLP120 DENSITY ALT 2000FT

TAF (pilot weather forecast)

Forecast is more than 6 hours old.

Closest forecast is Wiarton Airport, 48.4 nm (89.6 km) N. Retrieved 2019/07/16 20:00 UTC (8 hours ago):

TAF CYVV 161938Z 1620/1623 23012G22KT P6SM BKN050 TEMPO 1620/1623 P6SM -SHRA BKN020 BKN050 BECMG 1621/1623 23012KT RMK NXT FCST WILL BE ISSUED AT 171045Z